sensor_id;sensor_type;location;lat;lon;timestamp;P1;durP1;ratioP1;P2;durP2;ratioP2
59024;SDS011;44806;48.008;13.666;2023-06-10T00:02:01;11.98;;;7.03;;
59024;SDS011;44806;48.008;13.666;2023-06-10T00:04:28;10.45;;;6.63;;
59024;SDS011;44806;48.008;13.666;2023-06-10T00:06:55;12.20;;;6.68;;
59024;SDS011;44806;48.008;13.666;2023-06-10T00:09:22;14.02;;;7.38;;
59024;SDS011;44806;48.008;13.666;2023-06-10T00:11:51;10.05;;;6.40;;
59024;SDS011;44806;48.008;13.666;2023-06-10T00:14:19;13.77;;;7.50;;
59024;SDS011;44806;48.008;13.666;2023-06-10T00:16:46;12.82;;;7.45;;
59024;SDS011;44806;48.008;13.666;2023-06-10T00:19:13;12.43;;;7.15;;
59024;SDS011;44806;48.008;13.666;2023-06-10T00:21:40;10.88;;;6.85;;
59024;SDS011;44806;48.008;13.666;2023-06-10T00:24:10;11.65;;;6.75;;
59024;SDS011;44806;48.008;13.666;2023-06-10T00:26:37;11.18;;;6.80;;
59024;SDS011;44806;48.008;13.666;2023-06-10T00:29:06;11.07;;;7.18;;
59024;SDS011;44806;48.008;13.666;2023-06-10T00:31:33;10.93;;;7.30;;
59024;SDS011;44806;48.008;13.666;2023-06-10T00:34:00;11.93;;;7.25;;
59024;SDS011;44806;48.008;13.666;2023-06-10T00:36:27;12.43;;;7.07;;
59024;SDS011;44806;48.008;13.666;2023-06-10T00:38:55;10.93;;;6.75;;
59024;SDS011;44806;48.008;13.666;2023-06-10T00:41:22;10.55;;;6.78;;
59024;SDS011;44806;48.008;13.666;2023-06-10T00:43:49;12.00;;;6.82;;
59024;SDS011;44806;48.008;13.666;2023-06-10T00:46:17;11.15;;;6.75;;
59024;SDS011;44806;48.008;13.666;2023-06-10T00:48:44;13.15;;;7.47;;
59024;SDS011;44806;48.008;13.666;2023-06-10T00:51:12;11.30;;;7.22;;
59024;SDS011;44806;48.008;13.666;2023-06-10T00:53:40;12.10;;;6.82;;
59024;SDS011;44806;48.008;13.666;2023-06-10T00:56:07;10.30;;;6.72;;
59024;SDS011;44806;48.008;13.666;2023-06-10T00:58:34;10.57;;;6.93;;
59024;SDS011;44806;48.008;13.666;2023-06-10T01:01:02;20.75;;;6.85;;
59024;SDS011;44806;48.008;13.666;2023-06-10T01:03:31;11.55;;;6.85;;
59024;SDS011;44806;48.008;13.666;2023-06-10T01:06:04;12.95;;;7.43;;
59024;SDS011;44806;48.008;13.666;2023-06-10T01:08:45;11.32;;;7.55;;
59024;SDS011;44806;48.008;13.666;2023-06-10T01:11:23;10.25;;;6.78;;
59024;SDS011;44806;48.008;13.666;2023-06-10T01:13:54;11.65;;;6.50;;
59024;SDS011;44806;48.008;13.666;2023-06-10T01:16:22;11.45;;;6.63;;
59024;SDS011;44806;48.008;13.666;2023-06-10T01:18:52;10.23;;;6.03;;
59024;SDS011;44806;48.008;13.666;2023-06-10T01:21:21;10.88;;;6.82;;
59024;SDS011;44806;48.008;13.666;2023-06-10T01:23:50;10.45;;;6.90;;
59024;SDS011;44806;48.008;13.666;2023-06-10T01:26:18;12.13;;;7.10;;
59024;SDS011;44806;48.008;13.666;2023-06-10T01:28:51;11.02;;;6.68;;
59024;SDS011;44806;48.008;13.666;2023-06-10T01:31:25;10.63;;;6.75;;
59024;SDS011;44806;48.008;13.666;2023-06-10T01:33:59;10.95;;;6.45;;
59024;SDS011;44806;48.008;13.666;2023-06-10T01:36:29;10.88;;;6.95;;
59024;SDS011;44806;48.008;13.666;2023-06-10T01:38:59;10.18;;;6.28;;
59024;SDS011;44806;48.008;13.666;2023-06-10T01:41:27;11.93;;;6.43;;
59024;SDS011;44806;48.008;13.666;2023-06-10T01:43:55;10.07;;;5.40;;
59024;SDS011;44806;48.008;13.666;2023-06-10T01:46:22;9.70;;;5.80;;
59024;SDS011;44806;48.008;13.666;2023-06-10T01:48:49;12.85;;;6.28;;
59024;SDS011;44806;48.008;13.666;2023-06-10T01:51:16;12.00;;;6.45;;
59024;SDS011;44806;48.008;13.666;2023-06-10T01:53:45;9.68;;;6.18;;
59024;SDS011;44806;48.008;13.666;2023-06-10T01:56:11;11.50;;;6.07;;
59024;SDS011;44806;48.008;13.666;2023-06-10T01:58:42;12.35;;;7.30;;
59024;SDS011;44806;48.008;13.666;2023-06-10T02:01:10;13.85;;;6.72;;
59024;SDS011;44806;48.008;13.666;2023-06-10T02:03:37;10.95;;;6.00;;
59024;SDS011;44806;48.008;13.666;2023-06-10T02:06:04;11.73;;;7.30;;
59024;SDS011;44806;48.008;13.666;2023-06-10T02:08:31;13.50;;;6.32;;
59024;SDS011;44806;48.008;13.666;2023-06-10T02:10:59;9.95;;;6.35;;
59024;SDS011;44806;48.008;13.666;2023-06-10T02:13:26;10.50;;;6.03;;
59024;SDS011;44806;48.008;13.666;2023-06-10T02:15:53;10.13;;;6.10;;
59024;SDS011;44806;48.008;13.666;2023-06-10T02:18:20;14.35;;;6.43;;
59024;SDS011;44806;48.008;13.666;2023-06-10T02:20:47;10.98;;;5.65;;
59024;SDS011;44806;48.008;13.666;2023-06-10T02:23:14;11.15;;;5.97;;
59024;SDS011;44806;48.008;13.666;2023-06-10T02:25:41;8.30;;;4.80;;
59024;SDS011;44806;48.008;13.666;2023-06-10T02:28:10;10.90;;;5.72;;
59024;SDS011;44806;48.008;13.666;2023-06-10T02:30:38;9.13;;;4.88;;
59024;SDS011;44806;48.008;13.666;2023-06-10T02:33:06;9.93;;;5.65;;
59024;SDS011;44806;48.008;13.666;2023-06-10T02:35:35;11.05;;;5.93;;
59024;SDS011;44806;48.008;13.666;2023-06-10T02:38:02;10.70;;;5.47;;
59024;SDS011;44806;48.008;13.666;2023-06-10T02:40:30;9.50;;;5.05;;
59024;SDS011;44806;48.008;13.666;2023-06-10T02:42:57;11.90;;;6.30;;
59024;SDS011;44806;48.008;13.666;2023-06-10T02:45:25;26.23;;;5.90;;
59024;SDS011;44806;48.008;13.666;2023-06-10T02:47:52;10.90;;;6.05;;
59024;SDS011;44806;48.008;13.666;2023-06-10T02:50:19;9.18;;;5.40;;
59024;SDS011;44806;48.008;13.666;2023-06-10T02:52:47;8.45;;;4.07;;
59024;SDS011;44806;48.008;13.666;2023-06-10T02:55:15;9.48;;;4.72;;
59024;SDS011;44806;48.008;13.666;2023-06-10T02:57:41;8.57;;;4.47;;
59024;SDS011;44806;48.008;13.666;2023-06-10T03:00:09;9.30;;;4.13;;
59024;SDS011;44806;48.008;13.666;2023-06-10T03:02:40;11.02;;;4.75;;
59024;SDS011;44806;48.008;13.666;2023-06-10T03:05:08;8.88;;;4.70;;
59024;SDS011;44806;48.008;13.666;2023-06-10T03:07:36;8.93;;;4.55;;
59024;SDS011;44806;48.008;13.666;2023-06-10T03:10:03;7.63;;;3.70;;
59024;SDS011;44806;48.008;13.666;2023-06-10T03:12:31;9.25;;;5.38;;
59024;SDS011;44806;48.008;13.666;2023-06-10T03:14:58;8.40;;;4.25;;
59024;SDS011;44806;48.008;13.666;2023-06-10T03:17:25;10.95;;;5.95;;
59024;SDS011;44806;48.008;13.666;2023-06-10T03:19:53;11.15;;;4.82;;
59024;SDS011;44806;48.008;13.666;2023-06-10T03:22:21;9.85;;;5.65;;
59024;SDS011;44806;48.008;13.666;2023-06-10T03:24:48;10.00;;;5.30;;
59024;SDS011;44806;48.008;13.666;2023-06-10T03:27:15;10.75;;;4.68;;
59024;SDS011;44806;48.008;13.666;2023-06-10T03:29:42;10.02;;;5.20;;
59024;SDS011;44806;48.008;13.666;2023-06-10T03:32:10;9.35;;;5.28;;
59024;SDS011;44806;48.008;13.666;2023-06-10T03:34:36;10.32;;;5.40;;
59024;SDS011;44806;48.008;13.666;2023-06-10T03:37:06;9.10;;;5.18;;
59024;SDS011;44806;48.008;13.666;2023-06-10T03:39:33;8.43;;;4.97;;
59024;SDS011;44806;48.008;13.666;2023-06-10T03:42:00;10.75;;;4.88;;
59024;SDS011;44806;48.008;13.666;2023-06-10T03:44:27;9.98;;;5.25;;
59024;SDS011;44806;48.008;13.666;2023-06-10T03:46:54;10.57;;;5.28;;
59024;SDS011;44806;48.008;13.666;2023-06-10T03:49:21;10.82;;;5.00;;
59024;SDS011;44806;48.008;13.666;2023-06-10T03:51:52;11.88;;;5.43;;
59024;SDS011;44806;48.008;13.666;2023-06-10T03:54:21;10.13;;;4.47;;
59024;SDS011;44806;48.008;13.666;2023-06-10T03:56:48;10.05;;;5.45;;
59024;SDS011;44806;48.008;13.666;2023-06-10T03:59:15;10.63;;;5.00;;
59024;SDS011;44806;48.008;13.666;2023-06-10T04:01:42;11.40;;;5.32;;
59024;SDS011;44806;48.008;13.666;2023-06-10T04:04:12;11.07;;;5.25;;
59024;SDS011;44806;48.008;13.666;2023-06-10T04:06:41;11.10;;;5.75;;
59024;SDS011;44806;48.008;13.666;2023-06-10T04:09:10;9.02;;;4.50;;
59024;SDS011;44806;48.008;13.666;2023-06-10T04:11:38;10.75;;;5.47;;
59024;SDS011;44806;48.008;13.666;2023-06-10T04:14:05;10.23;;;5.45;;
59024;SDS011;44806;48.008;13.666;2023-06-10T04:16:32;10.55;;;5.93;;
59024;SDS011;44806;48.008;13.666;2023-06-10T04:19:00;10.13;;;5.50;;
59024;SDS011;44806;48.008;13.666;2023-06-10T04:21:27;11.48;;;5.07;;
59024;SDS011;44806;48.008;13.666;2023-06-10T04:23:54;10.68;;;5.53;;
59024;SDS011;44806;48.008;13.666;2023-06-10T04:26:21;10.32;;;5.05;;
59024;SDS011;44806;48.008;13.666;2023-06-10T04:28:49;8.90;;;4.57;;
59024;SDS011;44806;48.008;13.666;2023-06-10T04:31:17;17.35;;;5.43;;
59024;SDS011;44806;48.008;13.666;2023-06-10T04:33:44;10.63;;;4.70;;
59024;SDS011;44806;48.008;13.666;2023-06-10T04:36:11;10.40;;;5.40;;
59024;SDS011;44806;48.008;13.666;2023-06-10T04:38:39;10.18;;;5.07;;
59024;SDS011;44806;48.008;13.666;2023-06-10T04:41:06;12.07;;;6.28;;
59024;SDS011;44806;48.008;13.666;2023-06-10T04:43:33;15.93;;;6.47;;
59024;SDS011;44806;48.008;13.666;2023-06-10T04:46:02;13.93;;;5.57;;
59024;SDS011;44806;48.008;13.666;2023-06-10T04:48:29;11.07;;;5.82;;
59024;SDS011;44806;48.008;13.666;2023-06-10T04:50:55;10.43;;;5.80;;
59024;SDS011;44806;48.008;13.666;2023-06-10T04:53:23;12.60;;;6.00;;
59024;SDS011;44806;48.008;13.666;2023-06-10T04:55:50;17.70;;;7.07;;
59024;SDS011;44806;48.008;13.666;2023-06-10T04:58:17;12.88;;;6.60;;
59024;SDS011;44806;48.008;13.666;2023-06-10T05:00:43;12.50;;;7.05;;
59024;SDS011;44806;48.008;13.666;2023-06-10T05:03:12;13.00;;;6.45;;
59024;SDS011;44806;48.008;13.666;2023-06-10T05:05:39;12.75;;;7.55;;
59024;SDS011;44806;48.008;13.666;2023-06-10T05:08:06;13.25;;;6.80;;
59024;SDS011;44806;48.008;13.666;2023-06-10T05:10:33;12.05;;;7.22;;
59024;SDS011;44806;48.008;13.666;2023-06-10T05:13:00;13.43;;;6.57;;
59024;SDS011;44806;48.008;13.666;2023-06-10T05:15:28;11.82;;;5.82;;
59024;SDS011;44806;48.008;13.666;2023-06-10T05:17:56;11.50;;;6.40;;
59024;SDS011;44806;48.008;13.666;2023-06-10T05:20:25;11.63;;;6.28;;
59024;SDS011;44806;48.008;13.666;2023-06-10T05:22:53;12.57;;;7.00;;
59024;SDS011;44806;48.008;13.666;2023-06-10T05:25:20;12.05;;;6.40;;
59024;SDS011;44806;48.008;13.666;2023-06-10T05:27:47;12.55;;;6.68;;
59024;SDS011;44806;48.008;13.666;2023-06-10T05:30:14;12.35;;;6.35;;
59024;SDS011;44806;48.008;13.666;2023-06-10T05:32:43;10.77;;;6.07;;
59024;SDS011;44806;48.008;13.666;2023-06-10T05:35:10;12.25;;;6.47;;
59024;SDS011;44806;48.008;13.666;2023-06-10T05:37:39;9.98;;;5.22;;
59024;SDS011;44806;48.008;13.666;2023-06-10T05:40:06;14.77;;;6.15;;
59024;SDS011;44806;48.008;13.666;2023-06-10T05:42:34;11.90;;;5.72;;
59024;SDS011;44806;48.008;13.666;2023-06-10T05:45:01;10.48;;;6.38;;
59024;SDS011;44806;48.008;13.666;2023-06-10T05:47:28;10.90;;;6.35;;
59024;SDS011;44806;48.008;13.666;2023-06-10T05:49:55;11.15;;;6.53;;
59024;SDS011;44806;48.008;13.666;2023-06-10T05:52:22;12.73;;;5.78;;
59024;SDS011;44806;48.008;13.666;2023-06-10T05:54:51;9.05;;;4.82;;
59024;SDS011;44806;48.008;13.666;2023-06-10T05:57:19;7.78;;;4.25;;
59024;SDS011;44806;48.008;13.666;2023-06-10T05:59:46;9.52;;;4.35;;
59024;SDS011;44806;48.008;13.666;2023-06-10T06:02:13;7.90;;;4.03;;
59024;SDS011;44806;48.008;13.666;2023-06-10T06:04:40;9.63;;;4.57;;
59024;SDS011;44806;48.008;13.666;2023-06-10T06:07:07;8.98;;;3.90;;
59024;SDS011;44806;48.008;13.666;2023-06-10T06:09:34;8.75;;;4.28;;
59024;SDS011;44806;48.008;13.666;2023-06-10T06:12:02;6.72;;;3.30;;
59024;SDS011;44806;48.008;13.666;2023-06-10T06:14:31;7.88;;;4.60;;
59024;SDS011;44806;48.008;13.666;2023-06-10T06:16:58;9.57;;;5.15;;
59024;SDS011;44806;48.008;13.666;2023-06-10T06:19:25;9.93;;;5.18;;
59024;SDS011;44806;48.008;13.666;2023-06-10T06:21:52;9.45;;;3.75;;
59024;SDS011;44806;48.008;13.666;2023-06-10T06:24:19;8.95;;;4.97;;
59024;SDS011;44806;48.008;13.666;2023-06-10T06:26:46;7.65;;;4.50;;
59024;SDS011;44806;48.008;13.666;2023-06-10T06:29:14;7.75;;;4.70;;
59024;SDS011;44806;48.008;13.666;2023-06-10T06:31:41;8.35;;;4.55;;
59024;SDS011;44806;48.008;13.666;2023-06-10T06:34:08;8.77;;;4.47;;
59024;SDS011;44806;48.008;13.666;2023-06-10T06:36:35;7.75;;;4.60;;
59024;SDS011;44806;48.008;13.666;2023-06-10T06:39:02;8.70;;;5.13;;
59024;SDS011;44806;48.008;13.666;2023-06-10T06:41:29;9.35;;;5.35;;
59024;SDS011;44806;48.008;13.666;2023-06-10T06:43:56;9.93;;;5.88;;
59024;SDS011;44806;48.008;13.666;2023-06-10T06:46:24;11.38;;;5.57;;
59024;SDS011;44806;48.008;13.666;2023-06-10T06:48:51;9.55;;;5.32;;
59024;SDS011;44806;48.008;13.666;2023-06-10T06:51:18;8.35;;;5.20;;
59024;SDS011;44806;48.008;13.666;2023-06-10T06:53:45;9.57;;;5.35;;
59024;SDS011;44806;48.008;13.666;2023-06-10T06:56:15;8.85;;;5.57;;
59024;SDS011;44806;48.008;13.666;2023-06-10T06:58:42;9.43;;;5.85;;
59024;SDS011;44806;48.008;13.666;2023-06-10T07:01:09;9.13;;;5.10;;
59024;SDS011;44806;48.008;13.666;2023-06-10T07:03:37;8.75;;;5.63;;
59024;SDS011;44806;48.008;13.666;2023-06-10T07:06:04;9.70;;;5.72;;
59024;SDS011;44806;48.008;13.666;2023-06-10T07:08:31;10.60;;;6.00;;
59024;SDS011;44806;48.008;13.666;2023-06-10T07:10:58;9.65;;;6.03;;
59024;SDS011;44806;48.008;13.666;2023-06-10T07:13:25;8.68;;;5.47;;
59024;SDS011;44806;48.008;13.666;2023-06-10T07:15:53;9.32;;;5.53;;
59024;SDS011;44806;48.008;13.666;2023-06-10T07:18:20;8.38;;;5.15;;
59024;SDS011;44806;48.008;13.666;2023-06-10T07:20:48;8.60;;;5.32;;
59024;SDS011;44806;48.008;13.666;2023-06-10T07:23:15;9.70;;;5.35;;
59024;SDS011;44806;48.008;13.666;2023-06-10T07:25:42;9.45;;;5.13;;
59024;SDS011;44806;48.008;13.666;2023-06-10T07:28:09;9.68;;;5.25;;
59024;SDS011;44806;48.008;13.666;2023-06-10T07:30:36;7.97;;;4.72;;
59024;SDS011;44806;48.008;13.666;2023-06-10T07:33:02;8.40;;;5.32;;
59024;SDS011;44806;48.008;13.666;2023-06-10T07:35:32;10.23;;;5.55;;
59024;SDS011;44806;48.008;13.666;2023-06-10T07:38:01;7.55;;;4.28;;
59024;SDS011;44806;48.008;13.666;2023-06-10T07:40:27;9.52;;;5.70;;
59024;SDS011;44806;48.008;13.666;2023-06-10T07:42:55;8.48;;;5.20;;
59024;SDS011;44806;48.008;13.666;2023-06-10T07:45:22;10.50;;;5.60;;
59024;SDS011;44806;48.008;13.666;2023-06-10T07:47:49;8.98;;;5.20;;
59024;SDS011;44806;48.008;13.666;2023-06-10T07:50:16;10.32;;;5.55;;
59024;SDS011;44806;48.008;13.666;2023-06-10T07:52:43;8.98;;;5.53;;
59024;SDS011;44806;48.008;13.666;2023-06-10T07:55:11;8.15;;;4.80;;
59024;SDS011;44806;48.008;13.666;2023-06-10T07:57:38;7.40;;;4.40;;
59024;SDS011;44806;48.008;13.666;2023-06-10T08:00:05;8.35;;;5.45;;
59024;SDS011;44806;48.008;13.666;2023-06-10T08:02:33;9.02;;;5.40;;
59024;SDS011;44806;48.008;13.666;2023-06-10T08:05:00;8.32;;;5.15;;
59024;SDS011;44806;48.008;13.666;2023-06-10T08:07:27;8.13;;;4.82;;
59024;SDS011;44806;48.008;13.666;2023-06-10T08:09:54;9.65;;;5.30;;
59024;SDS011;44806;48.008;13.666;2023-06-10T08:12:22;8.57;;;5.03;;
59024;SDS011;44806;48.008;13.666;2023-06-10T08:14:49;8.98;;;4.95;;
59024;SDS011;44806;48.008;13.666;2023-06-10T08:17:16;8.63;;;5.80;;
59024;SDS011;44806;48.008;13.666;2023-06-10T08:19:43;8.02;;;5.07;;
59024;SDS011;44806;48.008;13.666;2023-06-10T08:22:10;8.50;;;4.88;;
59024;SDS011;44806;48.008;13.666;2023-06-10T08:24:37;7.55;;;5.13;;
59024;SDS011;44806;48.008;13.666;2023-06-10T08:27:04;8.80;;;5.50;;
59024;SDS011;44806;48.008;13.666;2023-06-10T08:29:33;9.10;;;5.28;;
59024;SDS011;44806;48.008;13.666;2023-06-10T08:32:00;10.48;;;5.10;;
59024;SDS011;44806;48.008;13.666;2023-06-10T08:34:27;8.48;;;5.53;;
59024;SDS011;44806;48.008;13.666;2023-06-10T08:36:54;9.05;;;5.97;;
59024;SDS011;44806;48.008;13.666;2023-06-10T08:39:21;9.05;;;5.55;;
59024;SDS011;44806;48.008;13.666;2023-06-10T08:44:38;11.55;;;6.75;;
59024;SDS011;44806;48.008;13.666;2023-06-10T08:47:08;8.65;;;5.95;;
59024;SDS011;44806;48.008;13.666;2023-06-10T08:49:41;8.70;;;5.53;;
59024;SDS011;44806;48.008;13.666;2023-06-10T08:52:11;10.65;;;6.25;;
59024;SDS011;44806;48.008;13.666;2023-06-10T08:54:42;9.68;;;6.43;;
59024;SDS011;44806;48.008;13.666;2023-06-10T08:57:12;9.55;;;6.30;;
59024;SDS011;44806;48.008;13.666;2023-06-10T08:59:41;11.07;;;7.43;;
59024;SDS011;44806;48.008;13.666;2023-06-10T09:02:09;11.45;;;7.10;;
59024;SDS011;44806;48.008;13.666;2023-06-10T09:04:36;12.10;;;7.80;;
59024;SDS011;44806;48.008;13.666;2023-06-10T09:07:04;10.93;;;6.63;;
59024;SDS011;44806;48.008;13.666;2023-06-10T09:09:32;11.13;;;7.28;;
59024;SDS011;44806;48.008;13.666;2023-06-10T09:12:02;14.73;;;7.15;;
59024;SDS011;44806;48.008;13.666;2023-06-10T09:14:29;11.75;;;7.30;;
59024;SDS011;44806;48.008;13.666;2023-06-10T09:16:58;10.23;;;6.75;;
59024;SDS011;44806;48.008;13.666;2023-06-10T09:19:25;10.38;;;6.93;;
59024;SDS011;44806;48.008;13.666;2023-06-10T09:21:53;11.02;;;7.50;;
59024;SDS011;44806;48.008;13.666;2023-06-10T09:24:20;11.95;;;7.22;;
59024;SDS011;44806;48.008;13.666;2023-06-10T09:26:49;10.77;;;6.65;;
59024;SDS011;44806;48.008;13.666;2023-06-10T09:29:16;10.25;;;7.07;;
59024;SDS011;44806;48.008;13.666;2023-06-10T09:31:43;9.95;;;7.43;;
59024;SDS011;44806;48.008;13.666;2023-06-10T09:34:12;10.50;;;6.53;;
59024;SDS011;44806;48.008;13.666;2023-06-10T09:36:42;13.23;;;6.85;;
59024;SDS011;44806;48.008;13.666;2023-06-10T09:39:13;11.68;;;7.45;;
59024;SDS011;44806;48.008;13.666;2023-06-10T09:41:42;10.57;;;6.38;;
59024;SDS011;44806;48.008;13.666;2023-06-10T09:44:11;9.13;;;6.88;;
59024;SDS011;44806;48.008;13.666;2023-06-10T09:46:39;9.88;;;5.72;;
59024;SDS011;44806;48.008;13.666;2023-06-10T09:49:06;12.52;;;6.80;;
59024;SDS011;44806;48.008;13.666;2023-06-10T09:51:35;12.60;;;7.50;;
59024;SDS011;44806;48.008;13.666;2023-06-10T09:54:02;8.15;;;5.68;;
59024;SDS011;44806;48.008;13.666;2023-06-10T09:56:32;9.43;;;5.60;;
59024;SDS011;44806;48.008;13.666;2023-06-10T09:59:00;11.15;;;7.60;;
59024;SDS011;44806;48.008;13.666;2023-06-10T10:01:27;9.90;;;6.07;;
59024;SDS011;44806;48.008;13.666;2023-06-10T10:03:56;8.38;;;7.10;;
59024;SDS011;44806;48.008;13.666;2023-06-10T10:06:24;34.67;;;7.80;;
59024;SDS011;44806;48.008;13.666;2023-06-10T10:08:53;39.00;;;9.15;;
59024;SDS011;44806;48.008;13.666;2023-06-10T10:11:20;10.85;;;5.72;;
59024;SDS011;44806;48.008;13.666;2023-06-10T10:13:48;8.20;;;6.20;;
59024;SDS011;44806;48.008;13.666;2023-06-10T10:16:17;9.60;;;7.43;;
59024;SDS011;44806;48.008;13.666;2023-06-10T10:18:54;8.55;;;5.90;;
59024;SDS011;44806;48.008;13.666;2023-06-10T10:21:22;18.25;;;6.88;;
59024;SDS011;44806;48.008;13.666;2023-06-10T10:23:57;11.80;;;6.03;;
